Terminal Aerodrome Forecast
Issued by NWS Caribou, ME

Home | Current Version | Previous Version | Text Only | Print | Product List | Glossary On
Versions: 1 2 3 4 5 6 7 8 9 10 11 12 13 14 15 16 17 18 19 20 21 22 23 24 25
000
FTUS41 KCAR 211749 AAB
TAFCAR
TAF AMD
KCAR 211749Z 2118/2218 22005KT P6SM SCT007 OVC015
     FM212000 VRB03KT P6SM SCT007 OVC025
     FM212300 VRB03KT P6SM SCT015 BKN035
     FM220300 VRB03KT P6SM -SN SCT007 OVC020
     FM220800 00000KT 5SM BR SCT006 OVC015=

USA.gov is the U.S. government's official web portal to all federal, state and local government web resources and services.